Rivers, Canada
Current Conditions -  °F | °C
As of 12:00 AM on Wednesday 22 Oct 2014 (Local Time) from CYBR Reporting Station
Clear Clear  
Wind Chill: 57°   Ceiling: Unl
Heat Index: 57°   Visibility: 15mi
Dew Point: 45°   Wind: 13mph
Humidity: 63%   Direction: 130°SE
Pressure: 29.64"   Gusts: NA
Location:  50.03°N, 100.22°W
Report Text: CYBR 220500Z 13011KT 15SM SKC 14/07 A2964 RMK SLP043 DENSITY ALT 1800FT
Loading
Personal Weather Stations






























Interactive Weather Map New forecast layout! Learn more

10-Day Weather Forecast

Advertisements
Track Severe Weather on mobile